sensor_id;sensor_type;location;lat;lon;timestamp;P1;durP1;ratioP1;P2;durP2;ratioP2
34481;SDS011;20720;48.886;9.388;2022-11-14T00:02:05;27.73;;;14.40;;
34481;SDS011;20720;48.886;9.388;2022-11-14T00:04:30;27.60;;;15.77;;
34481;SDS011;20720;48.886;9.388;2022-11-14T00:06:56;26.55;;;15.27;;
34481;SDS011;20720;48.886;9.388;2022-11-14T00:09:27;25.25;;;14.15;;
34481;SDS011;20720;48.886;9.388;2022-11-14T00:11:53;24.83;;;13.38;;
34481;SDS011;20720;48.886;9.388;2022-11-14T00:14:19;22.27;;;13.52;;
34481;SDS011;20720;48.886;9.388;2022-11-14T00:16:45;21.90;;;13.80;;
34481;SDS011;20720;48.886;9.388;2022-11-14T00:19:10;22.42;;;12.68;;
34481;SDS011;20720;48.886;9.388;2022-11-14T00:21:35;25.52;;;14.93;;
34481;SDS011;20720;48.886;9.388;2022-11-14T00:24:01;23.27;;;13.82;;
34481;SDS011;20720;48.886;9.388;2022-11-14T00:26:26;22.65;;;13.25;;
34481;SDS011;20720;48.886;9.388;2022-11-14T00:28:52;20.13;;;12.48;;
34481;SDS011;20720;48.886;9.388;2022-11-14T00:31:18;22.63;;;13.73;;
34481;SDS011;20720;48.886;9.388;2022-11-14T00:33:44;23.50;;;13.38;;
34481;SDS011;20720;48.886;9.388;2022-11-14T00:36:09;27.10;;;13.60;;
34481;SDS011;20720;48.886;9.388;2022-11-14T00:38:34;21.85;;;12.65;;
34481;SDS011;20720;48.886;9.388;2022-11-14T00:40:59;21.65;;;12.32;;
34481;SDS011;20720;48.886;9.388;2022-11-14T00:43:25;24.15;;;13.32;;
34481;SDS011;20720;48.886;9.388;2022-11-14T00:45:50;19.63;;;11.82;;
34481;SDS011;20720;48.886;9.388;2022-11-14T00:48:15;20.67;;;12.95;;
34481;SDS011;20720;48.886;9.388;2022-11-14T00:50:41;20.63;;;12.80;;
34481;SDS011;20720;48.886;9.388;2022-11-14T00:53:06;19.50;;;12.52;;
34481;SDS011;20720;48.886;9.388;2022-11-14T00:55:32;21.27;;;11.68;;
34481;SDS011;20720;48.886;9.388;2022-11-14T00:57:57;19.88;;;11.98;;
34481;SDS011;20720;48.886;9.388;2022-11-14T01:00:23;16.65;;;10.85;;
34481;SDS011;20720;48.886;9.388;2022-11-14T01:02:48;19.55;;;11.32;;
34481;SDS011;20720;48.886;9.388;2022-11-14T01:05:13;19.42;;;12.20;;
34481;SDS011;20720;48.886;9.388;2022-11-14T01:07:38;21.00;;;12.77;;
34481;SDS011;20720;48.886;9.388;2022-11-14T01:10:04;22.63;;;13.10;;
34481;SDS011;20720;48.886;9.388;2022-11-14T01:12:30;22.40;;;13.07;;
34481;SDS011;20720;48.886;9.388;2022-11-14T01:14:55;21.02;;;12.40;;
34481;SDS011;20720;48.886;9.388;2022-11-14T01:17:20;21.00;;;13.10;;
34481;SDS011;20720;48.886;9.388;2022-11-14T01:19:46;20.67;;;12.57;;
34481;SDS011;20720;48.886;9.388;2022-11-14T01:22:11;20.58;;;12.57;;
34481;SDS011;20720;48.886;9.388;2022-11-14T01:24:36;20.83;;;12.82;;
34481;SDS011;20720;48.886;9.388;2022-11-14T01:27:01;23.83;;;13.52;;
34481;SDS011;20720;48.886;9.388;2022-11-14T01:29:27;18.95;;;12.02;;
34481;SDS011;20720;48.886;9.388;2022-11-14T01:31:53;19.00;;;11.18;;
34481;SDS011;20720;48.886;9.388;2022-11-14T01:34:18;20.85;;;12.65;;
34481;SDS011;20720;48.886;9.388;2022-11-14T01:36:43;19.20;;;12.15;;
34481;SDS011;20720;48.886;9.388;2022-11-14T01:39:08;19.83;;;11.98;;
34481;SDS011;20720;48.886;9.388;2022-11-14T01:41:34;20.23;;;12.05;;
34481;SDS011;20720;48.886;9.388;2022-11-14T01:43:59;22.52;;;12.52;;
34481;SDS011;20720;48.886;9.388;2022-11-14T01:48:55;22.20;;;12.43;;
34481;SDS011;20720;48.886;9.388;2022-11-14T01:51:38;20.77;;;12.20;;
34481;SDS011;20720;48.886;9.388;2022-11-14T01:54:09;21.10;;;12.93;;
34481;SDS011;20720;48.886;9.388;2022-11-14T01:59:09;20.30;;;11.77;;
34481;SDS011;20720;48.886;9.388;2022-11-14T02:01:42;23.33;;;13.82;;
34481;SDS011;20720;48.886;9.388;2022-11-14T02:04:10;22.65;;;13.77;;
34481;SDS011;20720;48.886;9.388;2022-11-14T02:06:38;25.08;;;13.65;;
34481;SDS011;20720;48.886;9.388;2022-11-14T02:09:05;22.80;;;13.68;;
34481;SDS011;20720;48.886;9.388;2022-11-14T02:11:32;20.88;;;12.82;;
34481;SDS011;20720;48.886;9.388;2022-11-14T02:14:02;21.08;;;13.50;;
34481;SDS011;20720;48.886;9.388;2022-11-14T02:16:27;20.52;;;12.70;;
34481;SDS011;20720;48.886;9.388;2022-11-14T02:18:53;21.63;;;12.60;;
34481;SDS011;20720;48.886;9.388;2022-11-14T02:21:18;21.92;;;13.50;;
34481;SDS011;20720;48.886;9.388;2022-11-14T02:23:44;22.25;;;13.57;;
34481;SDS011;20720;48.886;9.388;2022-11-14T02:26:09;20.83;;;13.85;;
34481;SDS011;20720;48.886;9.388;2022-11-14T02:28:34;28.33;;;16.98;;
34481;SDS011;20720;48.886;9.388;2022-11-14T02:31:00;26.70;;;16.60;;
34481;SDS011;20720;48.886;9.388;2022-11-14T02:33:25;25.73;;;15.45;;
34481;SDS011;20720;48.886;9.388;2022-11-14T02:35:50;24.73;;;14.85;;
34481;SDS011;20720;48.886;9.388;2022-11-14T02:38:16;25.85;;;15.13;;
34481;SDS011;20720;48.886;9.388;2022-11-14T02:40:41;26.58;;;16.02;;
34481;SDS011;20720;48.886;9.388;2022-11-14T02:43:06;22.48;;;13.85;;
34481;SDS011;20720;48.886;9.388;2022-11-14T02:45:32;32.78;;;18.20;;
34481;SDS011;20720;48.886;9.388;2022-11-14T02:47:57;28.95;;;16.52;;
34481;SDS011;20720;48.886;9.388;2022-11-14T02:50:22;27.90;;;15.07;;
34481;SDS011;20720;48.886;9.388;2022-11-14T02:52:47;25.83;;;14.60;;
34481;SDS011;20720;48.886;9.388;2022-11-14T02:55:13;26.73;;;16.27;;
34481;SDS011;20720;48.886;9.388;2022-11-14T02:57:38;24.67;;;14.32;;
34481;SDS011;20720;48.886;9.388;2022-11-14T03:00:04;30.50;;;16.65;;
34481;SDS011;20720;48.886;9.388;2022-11-14T03:02:30;26.27;;;14.70;;
34481;SDS011;20720;48.886;9.388;2022-11-14T03:04:55;26.75;;;15.30;;
34481;SDS011;20720;48.886;9.388;2022-11-14T03:07:20;24.92;;;14.65;;
34481;SDS011;20720;48.886;9.388;2022-11-14T03:09:46;23.30;;;13.98;;
34481;SDS011;20720;48.886;9.388;2022-11-14T03:12:12;25.40;;;14.43;;
34481;SDS011;20720;48.886;9.388;2022-11-14T03:14:40;27.20;;;14.45;;
34481;SDS011;20720;48.886;9.388;2022-11-14T03:17:05;24.00;;;14.05;;
34481;SDS011;20720;48.886;9.388;2022-11-14T03:19:30;23.38;;;13.57;;
34481;SDS011;20720;48.886;9.388;2022-11-14T03:21:56;22.33;;;12.60;;
34481;SDS011;20720;48.886;9.388;2022-11-14T03:24:21;22.73;;;12.75;;
34481;SDS011;20720;48.886;9.388;2022-11-14T03:26:46;22.08;;;12.65;;
34481;SDS011;20720;48.886;9.388;2022-11-14T03:29:12;22.67;;;13.38;;
34481;SDS011;20720;48.886;9.388;2022-11-14T03:31:37;23.73;;;13.07;;
34481;SDS011;20720;48.886;9.388;2022-11-14T03:34:02;21.88;;;12.57;;
34481;SDS011;20720;48.886;9.388;2022-11-14T03:36:27;28.00;;;14.23;;
34481;SDS011;20720;48.886;9.388;2022-11-14T03:38:53;22.30;;;12.57;;
34481;SDS011;20720;48.886;9.388;2022-11-14T03:41:18;24.63;;;12.60;;
34481;SDS011;20720;48.886;9.388;2022-11-14T03:43:43;26.92;;;14.30;;
34481;SDS011;20720;48.886;9.388;2022-11-14T03:46:08;23.02;;;12.30;;
34481;SDS011;20720;48.886;9.388;2022-11-14T03:48:34;23.13;;;12.48;;
34481;SDS011;20720;48.886;9.388;2022-11-14T03:50:59;29.40;;;15.50;;
34481;SDS011;20720;48.886;9.388;2022-11-14T03:53:24;29.23;;;15.93;;
34481;SDS011;20720;48.886;9.388;2022-11-14T03:55:50;33.70;;;16.88;;
34481;SDS011;20720;48.886;9.388;2022-11-14T03:58:15;36.90;;;18.15;;
34481;SDS011;20720;48.886;9.388;2022-11-14T04:00:41;43.50;;;21.10;;
34481;SDS011;20720;48.886;9.388;2022-11-14T04:03:06;46.17;;;21.17;;
34481;SDS011;20720;48.886;9.388;2022-11-14T04:05:31;42.28;;;21.08;;
34481;SDS011;20720;48.886;9.388;2022-11-14T04:07:57;36.92;;;18.20;;
34481;SDS011;20720;48.886;9.388;2022-11-14T04:10:22;32.22;;;17.13;;
34481;SDS011;20720;48.886;9.388;2022-11-14T04:12:48;33.20;;;17.20;;
34481;SDS011;20720;48.886;9.388;2022-11-14T04:15:14;31.65;;;16.55;;
34481;SDS011;20720;48.886;9.388;2022-11-14T04:17:40;26.70;;;13.88;;
34481;SDS011;20720;48.886;9.388;2022-11-14T04:20:05;30.35;;;15.60;;
34481;SDS011;20720;48.886;9.388;2022-11-14T04:22:31;29.13;;;15.43;;
34481;SDS011;20720;48.886;9.388;2022-11-14T04:24:56;22.25;;;12.30;;
34481;SDS011;20720;48.886;9.388;2022-11-14T04:27:21;23.80;;;13.48;;
34481;SDS011;20720;48.886;9.388;2022-11-14T04:29:47;28.67;;;14.45;;
34481;SDS011;20720;48.886;9.388;2022-11-14T04:32:12;28.83;;;16.02;;
34481;SDS011;20720;48.886;9.388;2022-11-14T04:34:37;30.15;;;15.75;;
34481;SDS011;20720;48.886;9.388;2022-11-14T04:37:03;27.77;;;14.77;;
34481;SDS011;20720;48.886;9.388;2022-11-14T04:39:28;29.23;;;14.88;;
34481;SDS011;20720;48.886;9.388;2022-11-14T04:41:53;27.50;;;13.15;;
34481;SDS011;20720;48.886;9.388;2022-11-14T04:44:18;27.38;;;13.20;;
34481;SDS011;20720;48.886;9.388;2022-11-14T04:46:44;19.70;;;10.52;;
34481;SDS011;20720;48.886;9.388;2022-11-14T04:49:09;21.05;;;11.52;;
34481;SDS011;20720;48.886;9.388;2022-11-14T04:51:34;18.58;;;11.38;;
34481;SDS011;20720;48.886;9.388;2022-11-14T04:53:59;19.05;;;10.70;;
34481;SDS011;20720;48.886;9.388;2022-11-14T04:56:25;19.60;;;10.70;;
34481;SDS011;20720;48.886;9.388;2022-11-14T04:58:50;20.27;;;10.77;;
34481;SDS011;20720;48.886;9.388;2022-11-14T05:01:16;17.98;;;10.05;;
34481;SDS011;20720;48.886;9.388;2022-11-14T05:03:41;18.02;;;10.45;;
34481;SDS011;20720;48.886;9.388;2022-11-14T05:06:06;20.45;;;9.93;;
34481;SDS011;20720;48.886;9.388;2022-11-14T05:08:32;18.88;;;10.23;;
34481;SDS011;20720;48.886;9.388;2022-11-14T05:10:58;18.80;;;9.80;;
34481;SDS011;20720;48.886;9.388;2022-11-14T05:13:24;17.90;;;10.45;;
34481;SDS011;20720;48.886;9.388;2022-11-14T05:15:49;18.65;;;9.82;;
34481;SDS011;20720;48.886;9.388;2022-11-14T05:18:14;18.38;;;10.52;;
34481;SDS011;20720;48.886;9.388;2022-11-14T05:20:40;18.35;;;10.57;;
34481;SDS011;20720;48.886;9.388;2022-11-14T05:23:05;18.17;;;10.20;;
34481;SDS011;20720;48.886;9.388;2022-11-14T05:25:30;17.83;;;10.38;;
34481;SDS011;20720;48.886;9.388;2022-11-14T05:27:55;17.75;;;10.23;;
34481;SDS011;20720;48.886;9.388;2022-11-14T05:30:21;18.52;;;10.75;;
34481;SDS011;20720;48.886;9.388;2022-11-14T05:32:46;19.67;;;10.35;;
34481;SDS011;20720;48.886;9.388;2022-11-14T05:35:11;18.10;;;10.85;;
34481;SDS011;20720;48.886;9.388;2022-11-14T05:37:37;24.33;;;12.02;;
34481;SDS011;20720;48.886;9.388;2022-11-14T05:40:03;24.75;;;12.70;;
34481;SDS011;20720;48.886;9.388;2022-11-14T05:42:30;28.48;;;14.35;;
34481;SDS011;20720;48.886;9.388;2022-11-14T05:44:55;23.90;;;12.82;;
34481;SDS011;20720;48.886;9.388;2022-11-14T05:47:20;22.17;;;11.35;;
34481;SDS011;20720;48.886;9.388;2022-11-14T05:49:46;22.73;;;11.73;;
34481;SDS011;20720;48.886;9.388;2022-11-14T05:52:11;20.52;;;11.18;;
34481;SDS011;20720;48.886;9.388;2022-11-14T05:54:36;21.27;;;11.63;;
34481;SDS011;20720;48.886;9.388;2022-11-14T05:57:02;20.50;;;11.10;;
34481;SDS011;20720;48.886;9.388;2022-11-14T05:59:27;32.28;;;14.07;;
34481;SDS011;20720;48.886;9.388;2022-11-14T06:01:53;24.33;;;12.07;;
34481;SDS011;20720;48.886;9.388;2022-11-14T06:04:18;22.55;;;12.02;;
34481;SDS011;20720;48.886;9.388;2022-11-14T06:06:43;21.48;;;12.18;;
34481;SDS011;20720;48.886;9.388;2022-11-14T06:09:09;20.00;;;11.10;;
34481;SDS011;20720;48.886;9.388;2022-11-14T06:11:34;22.02;;;11.38;;
34481;SDS011;20720;48.886;9.388;2022-11-14T06:14:00;21.42;;;11.38;;
34481;SDS011;20720;48.886;9.388;2022-11-14T06:16:25;19.48;;;11.10;;
34481;SDS011;20720;48.886;9.388;2022-11-14T06:18:54;21.05;;;11.50;;
34481;SDS011;20720;48.886;9.388;2022-11-14T06:21:20;22.38;;;11.15;;
34481;SDS011;20720;48.886;9.388;2022-11-14T06:23:47;17.88;;;10.52;;
34481;SDS011;20720;48.886;9.388;2022-11-14T06:26:20;19.50;;;10.15;;
34481;SDS011;20720;48.886;9.388;2022-11-14T06:28:54;24.92;;;11.70;;
34481;SDS011;20720;48.886;9.388;2022-11-14T06:31:20;30.80;;;14.60;;
34481;SDS011;20720;48.886;9.388;2022-11-14T06:33:46;24.48;;;12.02;;
34481;SDS011;20720;48.886;9.388;2022-11-14T06:36:12;27.58;;;12.35;;
34481;SDS011;20720;48.886;9.388;2022-11-14T06:38:38;24.60;;;12.55;;
34481;SDS011;20720;48.886;9.388;2022-11-14T06:43:33;21.33;;;11.27;;
34481;SDS011;20720;48.886;9.388;2022-11-14T06:45:59;23.58;;;12.07;;
34481;SDS011;20720;48.886;9.388;2022-11-14T06:48:25;22.23;;;11.80;;
34481;SDS011;20720;48.886;9.388;2022-11-14T06:50:51;21.27;;;10.75;;
34481;SDS011;20720;48.886;9.388;2022-11-14T06:53:17;24.75;;;12.15;;
34481;SDS011;20720;48.886;9.388;2022-11-14T06:55:51;21.98;;;12.05;;
34481;SDS011;20720;48.886;9.388;2022-11-14T06:58:20;20.45;;;11.15;;
34481;SDS011;20720;48.886;9.388;2022-11-14T07:00:45;19.42;;;11.75;;
34481;SDS011;20720;48.886;9.388;2022-11-14T07:03:10;18.10;;;10.35;;
34481;SDS011;20720;48.886;9.388;2022-11-14T07:05:36;19.13;;;10.77;;
34481;SDS011;20720;48.886;9.388;2022-11-14T07:08:01;20.48;;;10.40;;
34481;SDS011;20720;48.886;9.388;2022-11-14T07:10:26;23.60;;;12.88;;
34481;SDS011;20720;48.886;9.388;2022-11-14T07:12:51;22.83;;;11.60;;
34481;SDS011;20720;48.886;9.388;2022-11-14T07:15:17;17.95;;;10.25;;
34481;SDS011;20720;48.886;9.388;2022-11-14T07:17:42;19.70;;;10.23;;
34481;SDS011;20720;48.886;9.388;2022-11-14T07:20:07;18.15;;;10.18;;
34481;SDS011;20720;48.886;9.388;2022-11-14T07:22:33;18.45;;;9.73;;
34481;SDS011;20720;48.886;9.388;2022-11-14T07:24:58;19.60;;;9.85;;
34481;SDS011;20720;48.886;9.388;2022-11-14T07:27:24;17.70;;;9.90;;
34481;SDS011;20720;48.886;9.388;2022-11-14T07:29:49;19.58;;;10.52;;
34481;SDS011;20720;48.886;9.388;2022-11-14T07:32:14;17.33;;;10.32;;
34481;SDS011;20720;48.886;9.388;2022-11-14T07:34:39;17.95;;;10.50;;
34481;SDS011;20720;48.886;9.388;2022-11-14T07:37:05;19.75;;;9.65;;
34481;SDS011;20720;48.886;9.388;2022-11-14T07:39:30;15.95;;;9.35;;
34481;SDS011;20720;48.886;9.388;2022-11-14T07:41:55;16.80;;;9.85;;
34481;SDS011;20720;48.886;9.388;2022-11-14T07:44:21;15.45;;;9.18;;
34481;SDS011;20720;48.886;9.388;2022-11-14T07:46:46;19.50;;;10.43;;
34481;SDS011;20720;48.886;9.388;2022-11-14T07:49:12;19.30;;;10.75;;
34481;SDS011;20720;48.886;9.388;2022-11-14T07:51:37;18.17;;;10.13;;
34481;SDS011;20720;48.886;9.388;2022-11-14T07:54:02;18.95;;;10.25;;
34481;SDS011;20720;48.886;9.388;2022-11-14T07:56:28;17.70;;;10.48;;
34481;SDS011;20720;48.886;9.388;2022-11-14T07:58:53;19.17;;;10.85;;
34481;SDS011;20720;48.886;9.388;2022-11-14T08:01:19;17.13;;;10.48;;
34481;SDS011;20720;48.886;9.388;2022-11-14T08:03:44;19.45;;;10.45;;
34481;SDS011;20720;48.886;9.388;2022-11-14T08:06:11;19.73;;;11.10;;
34481;SDS011;20720;48.886;9.388;2022-11-14T08:08:37;21.60;;;11.60;;
34481;SDS011;20720;48.886;9.388;2022-11-14T08:11:03;21.98;;;12.70;;
34481;SDS011;20720;48.886;9.388;2022-11-14T08:13:28;21.98;;;11.95;;
34481;SDS011;20720;48.886;9.388;2022-11-14T08:15:55;22.95;;;11.32;;
34481;SDS011;20720;48.886;9.388;2022-11-14T08:18:20;17.77;;;10.15;;
34481;SDS011;20720;48.886;9.388;2022-11-14T08:20:46;15.63;;;9.40;;
34481;SDS011;20720;48.886;9.388;2022-11-14T08:23:11;19.92;;;10.32;;
34481;SDS011;20720;48.886;9.388;2022-11-14T08:25:37;18.35;;;10.75;;
34481;SDS011;20720;48.886;9.388;2022-11-14T08:28:03;18.50;;;10.57;;
34481;SDS011;20720;48.886;9.388;2022-11-14T08:30:28;21.05;;;11.93;;
34481;SDS011;20720;48.886;9.388;2022-11-14T08:32:54;23.58;;;11.77;;
34481;SDS011;20720;48.886;9.388;2022-11-14T08:35:19;23.13;;;12.52;;
34481;SDS011;20720;48.886;9.388;2022-11-14T08:37:46;15.75;;;8.10;;
34481;SDS011;20720;48.886;9.388;2022-11-14T08:40:11;13.15;;;7.97;;
34481;SDS011;20720;48.886;9.388;2022-11-14T08:42:36;13.57;;;8.02;;
34481;SDS011;20720;48.886;9.388;2022-11-14T08:45:02;14.18;;;8.55;;
34481;SDS011;20720;48.886;9.388;2022-11-14T08:47:28;13.13;;;7.82;;
34481;SDS011;20720;48.886;9.388;2022-11-14T08:49:54;13.18;;;8.25;;
34481;SDS011;20720;48.886;9.388;2022-11-14T08:52:20;12.18;;;7.68;;
34481;SDS011;20720;48.886;9.388;2022-11-14T08:54:45;13.43;;;8.45;;
34481;SDS011;20720;48.886;9.388;2022-11-14T08:57:11;14.10;;;8.13;;
34481;SDS011;20720;48.886;9.388;2022-11-14T08:59:39;12.18;;;7.53;;
34481;SDS011;20720;48.886;9.388;2022-11-14T09:02:05;10.95;;;7.50;;
34481;SDS011;20720;48.886;9.388;2022-11-14T09:04:30;12.88;;;7.40;;
34481;SDS011;20720;48.886;9.388;2022-11-14T09:06:55;13.48;;;8.48;;
34481;SDS011;20720;48.886;9.388;2022-11-14T09:09:22;11.93;;;7.65;;
34481;SDS011;20720;48.886;9.388;2022-11-14T09:11:47;12.20;;;7.68;;
34481;SDS011;20720;48.886;9.388;2022-11-14T09:14:13;15.63;;;8.18;;
34481;SDS011;20720;48.886;9.388;2022-11-14T09:16:38;10.55;;;6.35;;
34481;SDS011;20720;48.886;9.388;2022-11-14T09:19:03;8.70;;;5.47;;
34481;SDS011;20720;48.886;9.388;2022-11-14T09:21:28;7.35;;;4.03;;
34481;SDS011;20720;48.886;9.388;2022-11-14T09:23:54;6.80;;;4.00;;
34481;SDS011;20720;48.886;9.388;2022-11-14T09:26:19;8.20;;;4.68;;
34481;SDS011;20720;48.886;9.388;2022-11-14T09:28:45;6.85;;;4.45;;
34481;SDS011;20720;48.886;9.388;2022-11-14T09:31:10;9.50;;;4.63;;
34481;SDS011;20720;48.886;9.388;2022-11-14T09:33:37;6.05;;;3.67;;
34481;SDS011;20720;48.886;9.388;2022-11-14T09:36:04;6.45;;;3.60;;
34481;SDS011;20720;48.886;9.388;2022-11-14T09:38:31;5.28;;;3.20;;
34481;SDS011;20720;48.886;9.388;2022-11-14T09:46:24;5.32;;;2.47;;
34481;SDS011;20720;48.886;9.388;2022-11-14T09:48:56;6.20;;;2.40;;
34481;SDS011;20720;48.886;9.388;2022-11-14T09:51:22;5.82;;;3.10;;
34481;SDS011;20720;48.886;9.388;2022-11-14T09:53:55;3.42;;;1.92;;
34481;SDS011;20720;48.886;9.388;2022-11-14T09:56:23;4.13;;;2.30;;
34481;SDS011;20720;48.886;9.388;2022-11-14T09:58:49;4.13;;;2.13;;
34481;SDS011;20720;48.886;9.388;2022-11-14T10:07:13;4.15;;;1.92;;
34481;SDS011;20720;48.886;9.388;2022-11-14T10:09:53;4.45;;;2.00;;
34481;SDS011;20720;48.886;9.388;2022-11-14T10:15:21;2.40;;;1.57;;
34481;SDS011;20720;48.886;9.388;2022-11-14T10:20:41;3.40;;;1.60;;
34481;SDS011;20720;48.886;9.388;2022-11-14T10:23:21;3.25;;;1.67;;
34481;SDS011;20720;48.886;9.388;2022-11-14T10:26:01;3.92;;;2.40;;
34481;SDS011;20720;48.886;9.388;2022-11-14T10:28:49;3.92;;;2.67;;
34481;SDS011;20720;48.886;9.388;2022-11-14T10:31:22;4.57;;;2.67;;
34481;SDS011;20720;48.886;9.388;2022-11-14T10:33:59;4.28;;;2.30;;
34481;SDS011;20720;48.886;9.388;2022-11-14T10:36:40;4.30;;;2.50;;
34481;SDS011;20720;48.886;9.388;2022-11-14T10:41:52;4.68;;;2.75;;
34481;SDS011;20720;48.886;9.388;2022-11-14T10:44:25;5.57;;;3.03;;
34481;SDS011;20720;48.886;9.388;2022-11-14T10:46:57;4.25;;;2.72;;
34481;SDS011;20720;48.886;9.388;2022-11-14T10:49:30;7.10;;;3.22;;
34481;SDS011;20720;48.886;9.388;2022-11-14T10:52:00;4.20;;;2.35;;
34481;SDS011;20720;48.886;9.388;2022-11-14T10:54:35;2.92;;;1.67;;
34481;SDS011;20720;48.886;9.388;2022-11-14T10:57:12;4.05;;;1.88;;
34481;SDS011;20720;48.886;9.388;2022-11-14T10:59:40;2.92;;;1.48;;
34481;SDS011;20720;48.886;9.388;2022-11-14T11:02:07;2.72;;;1.30;;
34481;SDS011;20720;48.886;9.388;2022-11-14T11:04:33;2.53;;;1.20;;
34481;SDS011;20720;48.886;9.388;2022-11-14T11:09:31;1.70;;;0.98;;
34481;SDS011;20720;48.886;9.388;2022-11-14T11:12:18;3.30;;;1.25;;
34481;SDS011;20720;48.886;9.388;2022-11-14T11:14:47;2.63;;;1.30;;
34481;SDS011;20720;48.886;9.388;2022-11-14T11:17:19;2.55;;;1.20;;
34481;SDS011;20720;48.886;9.388;2022-11-14T11:19:46;2.78;;;1.38;;
34481;SDS011;20720;48.886;9.388;2022-11-14T11:22:23;3.35;;;1.42;;
34481;SDS011;20720;48.886;9.388;2022-11-14T11:24:50;2.53;;;1.40;;
34481;SDS011;20720;48.886;9.388;2022-11-14T11:27:20;2.35;;;1.35;;
34481;SDS011;20720;48.886;9.388;2022-11-14T11:29:49;3.90;;;1.47;;
34481;SDS011;20720;48.886;9.388;2022-11-14T11:32:30;2.57;;;1.20;;
34481;SDS011;20720;48.886;9.388;2022-11-14T11:34:56;3.10;;;1.17;;
34481;SDS011;20720;48.886;9.388;2022-11-14T11:40:11;2.95;;;1.15;;
34481;SDS011;20720;48.886;9.388;2022-11-14T11:42:42;2.40;;;1.15;;
34481;SDS011;20720;48.886;9.388;2022-11-14T11:45:15;3.03;;;1.23;;
34481;SDS011;20720;48.886;9.388;2022-11-14T11:47:56;4.05;;;1.10;;
34481;SDS011;20720;48.886;9.388;2022-11-14T11:50:24;3.03;;;1.33;;
34481;SDS011;20720;48.886;9.388;2022-11-14T11:55:32;2.05;;;1.15;;
34481;SDS011;20720;48.886;9.388;2022-11-14T11:58:04;2.60;;;1.40;;
34481;SDS011;20720;48.886;9.388;2022-11-14T12:00:33;1.77;;;1.00;;
34481;SDS011;20720;48.886;9.388;2022-11-14T12:02:59;1.95;;;0.90;;
34481;SDS011;20720;48.886;9.388;2022-11-14T12:05:45;2.25;;;1.10;;
34481;SDS011;20720;48.886;9.388;2022-11-14T12:08:17;2.95;;;1.25;;
34481;SDS011;20720;48.886;9.388;2022-11-14T12:10:50;1.92;;;0.98;;
34481;SDS011;20720;48.886;9.388;2022-11-14T12:13:27;1.85;;;1.05;;
34481;SDS011;20720;48.886;9.388;2022-11-14T12:31:54;2.33;;;1.15;;
34481;SDS011;20720;48.886;9.388;2022-11-14T12:36:54;2.28;;;1.08;;
34481;SDS011;20720;48.886;9.388;2022-11-14T12:39:20;2.17;;;1.20;;
34481;SDS011;20720;48.886;9.388;2022-11-14T12:41:47;2.35;;;1.35;;
34481;SDS011;20720;48.886;9.388;2022-11-14T12:44:17;3.10;;;1.50;;
34481;SDS011;20720;48.886;9.388;2022-11-14T12:49:55;1.95;;;1.17;;
34481;SDS011;20720;48.886;9.388;2022-11-14T13:08:51;2.85;;;1.20;;
34481;SDS011;20720;48.886;9.388;2022-11-14T13:14:14;1.80;;;0.90;;
34481;SDS011;20720;48.886;9.388;2022-11-14T13:20:02;2.28;;;1.15;;
34481;SDS011;20720;48.886;9.388;2022-11-14T13:23:04;3.22;;;1.08;;
34481;SDS011;20720;48.886;9.388;2022-11-14T13:33:43;1.70;;;0.80;;
34481;SDS011;20720;48.886;9.388;2022-11-14T13:36:10;2.80;;;1.05;;
34481;SDS011;20720;48.886;9.388;2022-11-14T13:39:01;2.65;;;1.00;;
34481;SDS011;20720;48.886;9.388;2022-11-14T13:41:43;2.22;;;0.80;;
34481;SDS011;20720;48.886;9.388;2022-11-14T13:47:32;2.88;;;1.00;;
34481;SDS011;20720;48.886;9.388;2022-11-14T13:50:14;2.45;;;0.93;;
34481;SDS011;20720;48.886;9.388;2022-11-14T13:52:43;2.87;;;0.90;;
34481;SDS011;20720;48.886;9.388;2022-11-14T13:58:33;5.43;;;1.30;;
34481;SDS011;20720;48.886;9.388;2022-11-14T14:06:42;3.13;;;0.98;;
34481;SDS011;20720;48.886;9.388;2022-11-14T14:14:45;2.17;;;1.00;;
34481;SDS011;20720;48.886;9.388;2022-11-14T14:17:18;2.08;;;1.00;;
34481;SDS011;20720;48.886;9.388;2022-11-14T14:20:04;2.47;;;0.90;;
34481;SDS011;20720;48.886;9.388;2022-11-14T14:25:17;2.55;;;1.10;;
34481;SDS011;20720;48.886;9.388;2022-11-14T14:31:02;4.03;;;1.05;;
34481;SDS011;20720;48.886;9.388;2022-11-14T14:33:38;2.85;;;1.27;;
34481;SDS011;20720;48.886;9.388;2022-11-14T14:36:18;3.33;;;1.30;;
34481;SDS011;20720;48.886;9.388;2022-11-14T14:38:43;5.20;;;1.30;;
34481;SDS011;20720;48.886;9.388;2022-11-14T14:41:09;1.75;;;1.10;;
34481;SDS011;20720;48.886;9.388;2022-11-14T14:43:36;4.13;;;1.10;;
34481;SDS011;20720;48.886;9.388;2022-11-14T14:46:01;2.40;;;1.40;;
34481;SDS011;20720;48.886;9.388;2022-11-14T14:48:28;3.20;;;1.40;;
34481;SDS011;20720;48.886;9.388;2022-11-14T14:50:57;2.45;;;1.20;;
34481;SDS011;20720;48.886;9.388;2022-11-14T14:55:55;4.97;;;1.35;;
34481;SDS011;20720;48.886;9.388;2022-11-14T15:00:49;4.15;;;1.38;;
34481;SDS011;20720;48.886;9.388;2022-11-14T15:03:17;3.53;;;1.55;;
34481;SDS011;20720;48.886;9.388;2022-11-14T15:05:44;2.00;;;1.17;;
34481;SDS011;20720;48.886;9.388;2022-11-14T15:08:10;3.92;;;1.90;;
34481;SDS011;20720;48.886;9.388;2022-11-14T15:10:38;6.32;;;2.08;;
34481;SDS011;20720;48.886;9.388;2022-11-14T15:13:03;3.53;;;1.50;;
34481;SDS011;20720;48.886;9.388;2022-11-14T15:15:29;5.10;;;2.13;;
34481;SDS011;20720;48.886;9.388;2022-11-14T15:17:55;3.65;;;1.85;;
34481;SDS011;20720;48.886;9.388;2022-11-14T15:20:31;4.72;;;1.95;;
34481;SDS011;20720;48.886;9.388;2022-11-14T15:25:29;5.78;;;2.20;;
34481;SDS011;20720;48.886;9.388;2022-11-14T15:27:55;5.43;;;2.15;;
34481;SDS011;20720;48.886;9.388;2022-11-14T15:30:26;3.33;;;1.65;;
34481;SDS011;20720;48.886;9.388;2022-11-14T15:33:01;3.95;;;1.80;;
34481;SDS011;20720;48.886;9.388;2022-11-14T15:35:30;5.00;;;1.58;;
34481;SDS011;20720;48.886;9.388;2022-11-14T15:40:34;25.80;;;12.85;;
34481;SDS011;20720;48.886;9.388;2022-11-14T15:43:33;26.63;;;14.02;;
34481;SDS011;20720;48.886;9.388;2022-11-14T15:49:06;3.42;;;2.10;;
34481;SDS011;20720;48.886;9.388;2022-11-14T15:51:39;4.75;;;2.05;;
34481;SDS011;20720;48.886;9.388;2022-11-14T15:54:21;3.28;;;1.63;;
34481;SDS011;20720;48.886;9.388;2022-11-14T15:57:08;2.28;;;1.25;;
34481;SDS011;20720;48.886;9.388;2022-11-14T15:59:36;3.75;;;1.42;;
34481;SDS011;20720;48.886;9.388;2022-11-14T16:02:18;2.90;;;1.48;;
34481;SDS011;20720;48.886;9.388;2022-11-14T16:04:46;4.28;;;1.65;;
34481;SDS011;20720;48.886;9.388;2022-11-14T16:07:14;3.60;;;1.25;;
34481;SDS011;20720;48.886;9.388;2022-11-14T16:09:40;3.35;;;1.38;;
34481;SDS011;20720;48.886;9.388;2022-11-14T16:12:06;2.90;;;1.60;;
34481;SDS011;20720;48.886;9.388;2022-11-14T16:14:32;3.85;;;1.60;;
34481;SDS011;20720;48.886;9.388;2022-11-14T16:17:01;4.32;;;1.58;;
34481;SDS011;20720;48.886;9.388;2022-11-14T16:19:26;3.22;;;1.40;;
34481;SDS011;20720;48.886;9.388;2022-11-14T16:21:52;3.92;;;1.40;;
34481;SDS011;20720;48.886;9.388;2022-11-14T16:24:21;4.07;;;1.70;;
34481;SDS011;20720;48.886;9.388;2022-11-14T16:26:47;4.07;;;1.90;;
34481;SDS011;20720;48.886;9.388;2022-11-14T16:29:13;5.65;;;2.20;;
34481;SDS011;20720;48.886;9.388;2022-11-14T16:31:39;3.25;;;1.70;;
34481;SDS011;20720;48.886;9.388;2022-11-14T16:34:04;6.53;;;1.80;;
34481;SDS011;20720;48.886;9.388;2022-11-14T16:36:30;2.60;;;1.55;;
34481;SDS011;20720;48.886;9.388;2022-11-14T16:39:01;3.38;;;1.75;;